Ujar, Russia
Current Conditions -  °F | °C
As of 4:30 PM on Thursday 18 Dec 2014 (Local Time) from UNKL Reporting Station
Broken Clouds Broken Clouds  
Wind Chill:   Ceiling: 8300
Heat Index: 18°   Visibility: 6mi
Dew Point: 10°   Wind: 7mph
Humidity: 73%   Direction: 250°WSW
Pressure: 30.53"   Gusts: NA
Location:  55.81°N, 94.31°E
Report Text: UNKL 180930Z 25003MPS 9999 SCT015CB BKN083 M08/M12 Q1034 NOSIGRMK QFE749 29////50
Loading
Personal Weather Stations






























Interactive Weather Map New forecast layout! Learn more

10-Day Weather Forecast

Advertisements
Track Severe Weather on mobile